sensor_id;sensor_type;location;lat;lon;timestamp;P1;durP1;ratioP1;P2;durP2;ratioP2
79566;SDS011;69030;48.126;7.816;2023-12-20T00:02:22;1.08;;;0.85;;
79566;SDS011;69030;48.126;7.816;2023-12-20T00:04:48;0.98;;;0.52;;
79566;SDS011;69030;48.126;7.816;2023-12-20T00:07:13;1.05;;;0.93;;
79566;SDS011;69030;48.126;7.816;2023-12-20T00:09:39;1.00;;;0.70;;
79566;SDS011;69030;48.126;7.816;2023-12-20T00:12:05;1.85;;;0.77;;
79566;SDS011;69030;48.126;7.816;2023-12-20T00:14:31;2.55;;;0.82;;
79566;SDS011;69030;48.126;7.816;2023-12-20T00:16:56;1.35;;;0.90;;
79566;SDS011;69030;48.126;7.816;2023-12-20T00:19:23;1.42;;;0.82;;
79566;SDS011;69030;48.126;7.816;2023-12-20T00:21:49;2.50;;;0.82;;
79566;SDS011;69030;48.126;7.816;2023-12-20T00:26:51;1.67;;;1.08;;
79566;SDS011;69030;48.126;7.816;2023-12-20T00:29:16;9.60;;;1.35;;
79566;SDS011;69030;48.126;7.816;2023-12-20T00:31:42;1.65;;;1.05;;
79566;SDS011;69030;48.126;7.816;2023-12-20T00:34:07;1.27;;;1.00;;
79566;SDS011;69030;48.126;7.816;2023-12-20T00:36:33;3.00;;;1.38;;
79566;SDS011;69030;48.126;7.816;2023-12-20T00:38:58;2.13;;;1.33;;
79566;SDS011;69030;48.126;7.816;2023-12-20T00:41:24;2.03;;;0.88;;
79566;SDS011;69030;48.126;7.816;2023-12-20T00:43:50;3.05;;;1.90;;
79566;SDS011;69030;48.126;7.816;2023-12-20T00:46:17;1.15;;;0.98;;
79566;SDS011;69030;48.126;7.816;2023-12-20T00:48:44;1.65;;;1.40;;
79566;SDS011;69030;48.126;7.816;2023-12-20T00:51:11;1.48;;;0.85;;
79566;SDS011;69030;48.126;7.816;2023-12-20T00:53:37;2.67;;;1.33;;
79566;SDS011;69030;48.126;7.816;2023-12-20T00:56:02;3.05;;;1.98;;
79566;SDS011;69030;48.126;7.816;2023-12-20T00:58:27;3.70;;;1.88;;
79566;SDS011;69030;48.126;7.816;2023-12-20T01:00:54;2.63;;;1.42;;
79566;SDS011;69030;48.126;7.816;2023-12-20T01:03:19;3.00;;;1.75;;
79566;SDS011;69030;48.126;7.816;2023-12-20T01:05:45;1.80;;;1.20;;
79566;SDS011;69030;48.126;7.816;2023-12-20T01:08:10;3.20;;;1.13;;
79566;SDS011;69030;48.126;7.816;2023-12-20T01:10:36;3.50;;;1.25;;
79566;SDS011;69030;48.126;7.816;2023-12-20T01:13:01;1.90;;;1.10;;
79566;SDS011;69030;48.126;7.816;2023-12-20T01:15:27;2.53;;;1.38;;
79566;SDS011;69030;48.126;7.816;2023-12-20T01:17:53;3.60;;;1.63;;
79566;SDS011;69030;48.126;7.816;2023-12-20T01:20:18;3.08;;;2.08;;
79566;SDS011;69030;48.126;7.816;2023-12-20T01:22:45;4.50;;;1.67;;
79566;SDS011;69030;48.126;7.816;2023-12-20T01:25:11;4.20;;;1.45;;
79566;SDS011;69030;48.126;7.816;2023-12-20T01:27:36;2.55;;;2.33;;
79566;SDS011;69030;48.126;7.816;2023-12-20T01:30:02;2.67;;;2.05;;
79566;SDS011;69030;48.126;7.816;2023-12-20T01:32:27;2.22;;;0.85;;
79566;SDS011;69030;48.126;7.816;2023-12-20T01:34:53;2.05;;;1.65;;
79566;SDS011;69030;48.126;7.816;2023-12-20T01:37:18;1.67;;;1.27;;
79566;SDS011;69030;48.126;7.816;2023-12-20T01:39:44;2.95;;;1.55;;
79566;SDS011;69030;48.126;7.816;2023-12-20T01:42:09;2.83;;;1.95;;
79566;SDS011;69030;48.126;7.816;2023-12-20T01:44:34;4.50;;;1.38;;
79566;SDS011;69030;48.126;7.816;2023-12-20T01:47:00;1.38;;;1.23;;
79566;SDS011;69030;48.126;7.816;2023-12-20T01:49:25;2.38;;;1.83;;
79566;SDS011;69030;48.126;7.816;2023-12-20T01:51:55;2.55;;;1.95;;
79566;SDS011;69030;48.126;7.816;2023-12-20T01:54:21;2.33;;;1.23;;
79566;SDS011;69030;48.126;7.816;2023-12-20T01:56:47;2.05;;;1.02;;
79566;SDS011;69030;48.126;7.816;2023-12-20T01:59:14;2.60;;;1.23;;
79566;SDS011;69030;48.126;7.816;2023-12-20T02:01:39;1.25;;;0.52;;
79566;SDS011;69030;48.126;7.816;2023-12-20T02:04:06;2.08;;;1.75;;
79566;SDS011;69030;48.126;7.816;2023-12-20T02:06:32;1.83;;;1.35;;
79566;SDS011;69030;48.126;7.816;2023-12-20T02:08:59;1.90;;;1.08;;
79566;SDS011;69030;48.126;7.816;2023-12-20T02:11:25;1.77;;;1.58;;
79566;SDS011;69030;48.126;7.816;2023-12-20T02:13:51;3.17;;;1.80;;
79566;SDS011;69030;48.126;7.816;2023-12-20T02:16:16;4.20;;;1.63;;
79566;SDS011;69030;48.126;7.816;2023-12-20T02:18:42;2.55;;;1.15;;
79566;SDS011;69030;48.126;7.816;2023-12-20T02:21:09;2.85;;;1.70;;
79566;SDS011;69030;48.126;7.816;2023-12-20T02:23:34;2.20;;;1.40;;
79566;SDS011;69030;48.126;7.816;2023-12-20T02:26:00;1.88;;;0.98;;
79566;SDS011;69030;48.126;7.816;2023-12-20T02:28:26;2.20;;;1.25;;
79566;SDS011;69030;48.126;7.816;2023-12-20T02:30:52;1.45;;;1.02;;
79566;SDS011;69030;48.126;7.816;2023-12-20T02:33:18;1.90;;;1.65;;
79566;SDS011;69030;48.126;7.816;2023-12-20T02:35:43;2.05;;;0.95;;
79566;SDS011;69030;48.126;7.816;2023-12-20T02:38:08;1.92;;;1.15;;
79566;SDS011;69030;48.126;7.816;2023-12-20T02:40:35;2.53;;;0.75;;
79566;SDS011;69030;48.126;7.816;2023-12-20T02:43:00;2.40;;;0.85;;
79566;SDS011;69030;48.126;7.816;2023-12-20T02:45:26;2.20;;;1.58;;
79566;SDS011;69030;48.126;7.816;2023-12-20T02:47:52;3.13;;;1.35;;
79566;SDS011;69030;48.126;7.816;2023-12-20T02:50:17;1.92;;;1.35;;
79566;SDS011;69030;48.126;7.816;2023-12-20T02:52:44;1.65;;;1.17;;
79566;SDS011;69030;48.126;7.816;2023-12-20T02:55:10;1.48;;;0.85;;
79566;SDS011;69030;48.126;7.816;2023-12-20T02:57:35;2.50;;;0.95;;
79566;SDS011;69030;48.126;7.816;2023-12-20T03:00:01;1.65;;;0.95;;
79566;SDS011;69030;48.126;7.816;2023-12-20T03:02:26;1.67;;;0.93;;
79566;SDS011;69030;48.126;7.816;2023-12-20T03:04:52;1.95;;;1.55;;
79566;SDS011;69030;48.126;7.816;2023-12-20T03:07:17;2.15;;;0.95;;
79566;SDS011;69030;48.126;7.816;2023-12-20T03:09:43;2.70;;;1.70;;
79566;SDS011;69030;48.126;7.816;2023-12-20T03:12:08;2.50;;;1.95;;
79566;SDS011;69030;48.126;7.816;2023-12-20T03:14:33;1.75;;;0.85;;
79566;SDS011;69030;48.126;7.816;2023-12-20T03:16:59;2.28;;;1.30;;
79566;SDS011;69030;48.126;7.816;2023-12-20T03:19:24;2.30;;;1.13;;
79566;SDS011;69030;48.126;7.816;2023-12-20T03:21:49;1.83;;;1.17;;
79566;SDS011;69030;48.126;7.816;2023-12-20T03:24:15;1.27;;;1.15;;
79566;SDS011;69030;48.126;7.816;2023-12-20T03:26:40;2.97;;;1.27;;
79566;SDS011;69030;48.126;7.816;2023-12-20T03:29:06;3.00;;;1.77;;
79566;SDS011;69030;48.126;7.816;2023-12-20T03:31:31;1.92;;;1.23;;
79566;SDS011;69030;48.126;7.816;2023-12-20T03:33:57;2.85;;;1.20;;
79566;SDS011;69030;48.126;7.816;2023-12-20T03:36:22;2.28;;;1.33;;
79566;SDS011;69030;48.126;7.816;2023-12-20T03:38:47;2.40;;;0.90;;
79566;SDS011;69030;48.126;7.816;2023-12-20T03:41:13;1.90;;;0.93;;
79566;SDS011;69030;48.126;7.816;2023-12-20T03:43:39;2.38;;;1.50;;
79566;SDS011;69030;48.126;7.816;2023-12-20T03:46:07;1.35;;;0.98;;
79566;SDS011;69030;48.126;7.816;2023-12-20T03:48:33;1.90;;;1.27;;
79566;SDS011;69030;48.126;7.816;2023-12-20T03:50:58;2.85;;;1.35;;
79566;SDS011;69030;48.126;7.816;2023-12-20T03:56:09;1.92;;;1.42;;
79566;SDS011;69030;48.126;7.816;2023-12-20T03:58:34;1.45;;;0.85;;
79566;SDS011;69030;48.126;7.816;2023-12-20T04:01:00;1.67;;;0.75;;
79566;SDS011;69030;48.126;7.816;2023-12-20T04:03:25;2.33;;;1.48;;
79566;SDS011;69030;48.126;7.816;2023-12-20T04:05:50;1.48;;;0.77;;
79566;SDS011;69030;48.126;7.816;2023-12-20T04:08:16;2.20;;;0.93;;
79566;SDS011;69030;48.126;7.816;2023-12-20T04:10:41;1.33;;;1.08;;
79566;SDS011;69030;48.126;7.816;2023-12-20T04:13:07;1.42;;;0.75;;
79566;SDS011;69030;48.126;7.816;2023-12-20T04:15:32;1.65;;;0.90;;
79566;SDS011;69030;48.126;7.816;2023-12-20T04:17:57;1.67;;;1.20;;
79566;SDS011;69030;48.126;7.816;2023-12-20T04:20:23;2.08;;;1.88;;
79566;SDS011;69030;48.126;7.816;2023-12-20T04:22:48;1.52;;;0.77;;
79566;SDS011;69030;48.126;7.816;2023-12-20T04:25:13;2.22;;;1.15;;
79566;SDS011;69030;48.126;7.816;2023-12-20T04:27:39;0.90;;;0.57;;
79566;SDS011;69030;48.126;7.816;2023-12-20T04:30:04;1.30;;;0.90;;
79566;SDS011;69030;48.126;7.816;2023-12-20T04:32:30;1.63;;;1.05;;
79566;SDS011;69030;48.126;7.816;2023-12-20T04:34:56;2.50;;;0.93;;
79566;SDS011;69030;48.126;7.816;2023-12-20T04:37:21;1.33;;;0.98;;
79566;SDS011;69030;48.126;7.816;2023-12-20T04:39:48;1.65;;;1.08;;
79566;SDS011;69030;48.126;7.816;2023-12-20T04:42:14;1.33;;;0.47;;
79566;SDS011;69030;48.126;7.816;2023-12-20T04:44:40;1.88;;;1.05;;
79566;SDS011;69030;48.126;7.816;2023-12-20T04:47:05;1.02;;;0.93;;
79566;SDS011;69030;48.126;7.816;2023-12-20T04:49:31;0.93;;;0.70;;
79566;SDS011;69030;48.126;7.816;2023-12-20T04:51:56;1.80;;;0.95;;
79566;SDS011;69030;48.126;7.816;2023-12-20T04:54:22;1.63;;;0.93;;
79566;SDS011;69030;48.126;7.816;2023-12-20T04:56:47;1.85;;;1.35;;
79566;SDS011;69030;48.126;7.816;2023-12-20T04:59:15;1.50;;;0.95;;
79566;SDS011;69030;48.126;7.816;2023-12-20T05:01:41;1.55;;;0.68;;
79566;SDS011;69030;48.126;7.816;2023-12-20T05:04:07;1.73;;;1.42;;
79566;SDS011;69030;48.126;7.816;2023-12-20T05:06:32;1.42;;;0.70;;
79566;SDS011;69030;48.126;7.816;2023-12-20T05:08:58;1.55;;;0.95;;
79566;SDS011;69030;48.126;7.816;2023-12-20T05:11:23;1.67;;;0.45;;
79566;SDS011;69030;48.126;7.816;2023-12-20T05:13:48;2.85;;;1.05;;
79566;SDS011;69030;48.126;7.816;2023-12-20T05:16:14;1.15;;;1.02;;
79566;SDS011;69030;48.126;7.816;2023-12-20T05:18:39;1.20;;;1.05;;
79566;SDS011;69030;48.126;7.816;2023-12-20T05:21:05;1.65;;;1.15;;
79566;SDS011;69030;48.126;7.816;2023-12-20T05:23:30;1.33;;;1.02;;
79566;SDS011;69030;48.126;7.816;2023-12-20T05:25:56;1.27;;;0.73;;
79566;SDS011;69030;48.126;7.816;2023-12-20T05:28:21;1.92;;;1.40;;
79566;SDS011;69030;48.126;7.816;2023-12-20T05:30:46;5.25;;;3.67;;
79566;SDS011;69030;48.126;7.816;2023-12-20T05:33:12;4.65;;;2.95;;
79566;SDS011;69030;48.126;7.816;2023-12-20T05:35:37;1.50;;;1.13;;
79566;SDS011;69030;48.126;7.816;2023-12-20T05:38:03;1.85;;;1.52;;
79566;SDS011;69030;48.126;7.816;2023-12-20T05:45:22;3.15;;;1.48;;
79566;SDS011;69030;48.126;7.816;2023-12-20T05:47:47;2.42;;;1.40;;
79566;SDS011;69030;48.126;7.816;2023-12-20T05:50:13;1.73;;;1.15;;
79566;SDS011;69030;48.126;7.816;2023-12-20T05:52:38;1.92;;;1.55;;
79566;SDS011;69030;48.126;7.816;2023-12-20T05:55:04;1.67;;;1.20;;
79566;SDS011;69030;48.126;7.816;2023-12-20T05:57:29;2.88;;;2.67;;
79566;SDS011;69030;48.126;7.816;2023-12-20T05:59:55;3.65;;;2.50;;
79566;SDS011;69030;48.126;7.816;2023-12-20T06:02:20;1.88;;;1.77;;
79566;SDS011;69030;48.126;7.816;2023-12-20T06:04:46;2.30;;;1.85;;
79566;SDS011;69030;48.126;7.816;2023-12-20T06:07:12;3.50;;;2.25;;
79566;SDS011;69030;48.126;7.816;2023-12-20T06:09:37;2.47;;;1.60;;
79566;SDS011;69030;48.126;7.816;2023-12-20T06:12:03;5.57;;;2.78;;
79566;SDS011;69030;48.126;7.816;2023-12-20T06:14:28;4.45;;;1.90;;
79566;SDS011;69030;48.126;7.816;2023-12-20T06:16:55;4.82;;;2.40;;
79566;SDS011;69030;48.126;7.816;2023-12-20T06:19:21;9.35;;;4.18;;
79566;SDS011;69030;48.126;7.816;2023-12-20T06:21:47;7.50;;;4.90;;
79566;SDS011;69030;48.126;7.816;2023-12-20T06:24:12;7.10;;;4.63;;
79566;SDS011;69030;48.126;7.816;2023-12-20T06:26:38;7.82;;;6.25;;
79566;SDS011;69030;48.126;7.816;2023-12-20T06:29:03;4.40;;;2.70;;
79566;SDS011;69030;48.126;7.816;2023-12-20T06:31:29;8.00;;;4.22;;
79566;SDS011;69030;48.126;7.816;2023-12-20T06:33:54;5.65;;;5.00;;
79566;SDS011;69030;48.126;7.816;2023-12-20T06:36:23;6.88;;;6.20;;
79566;SDS011;69030;48.126;7.816;2023-12-20T06:38:49;10.43;;;7.32;;
79566;SDS011;69030;48.126;7.816;2023-12-20T06:41:15;19.00;;;10.77;;
79566;SDS011;69030;48.126;7.816;2023-12-20T06:43:41;18.08;;;8.15;;
79566;SDS011;69030;48.126;7.816;2023-12-20T06:46:07;13.95;;;7.43;;
79566;SDS011;69030;48.126;7.816;2023-12-20T06:48:32;13.23;;;7.63;;
79566;SDS011;69030;48.126;7.816;2023-12-20T06:50:59;11.30;;;5.18;;
79566;SDS011;69030;48.126;7.816;2023-12-20T06:53:27;13.68;;;4.82;;
79566;SDS011;69030;48.126;7.816;2023-12-20T06:55:53;6.95;;;3.28;;
79566;SDS011;69030;48.126;7.816;2023-12-20T06:58:18;8.13;;;3.03;;
79566;SDS011;69030;48.126;7.816;2023-12-20T07:00:45;11.13;;;5.70;;
79566;SDS011;69030;48.126;7.816;2023-12-20T07:03:10;6.60;;;4.55;;
79566;SDS011;69030;48.126;7.816;2023-12-20T07:05:36;6.55;;;3.45;;
79566;SDS011;69030;48.126;7.816;2023-12-20T07:08:01;8.90;;;3.47;;
79566;SDS011;69030;48.126;7.816;2023-12-20T07:10:27;6.82;;;5.60;;
79566;SDS011;69030;48.126;7.816;2023-12-20T07:12:52;6.60;;;3.90;;
79566;SDS011;69030;48.126;7.816;2023-12-20T07:15:20;3.58;;;2.92;;
79566;SDS011;69030;48.126;7.816;2023-12-20T07:17:47;3.90;;;3.60;;
79566;SDS011;69030;48.126;7.816;2023-12-20T07:20:12;2.95;;;2.25;;
79566;SDS011;69030;48.126;7.816;2023-12-20T07:22:38;2.08;;;1.88;;
79566;SDS011;69030;48.126;7.816;2023-12-20T07:25:04;2.40;;;1.67;;
79566;SDS011;69030;48.126;7.816;2023-12-20T07:27:30;2.50;;;1.48;;
79566;SDS011;69030;48.126;7.816;2023-12-20T07:29:55;2.05;;;1.35;;
79566;SDS011;69030;48.126;7.816;2023-12-20T07:32:21;2.15;;;1.30;;
79566;SDS011;69030;48.126;7.816;2023-12-20T07:34:46;2.17;;;1.25;;
79566;SDS011;69030;48.126;7.816;2023-12-20T07:37:12;4.10;;;2.50;;
79566;SDS011;69030;48.126;7.816;2023-12-20T07:39:41;8.13;;;3.50;;
79566;SDS011;69030;48.126;7.816;2023-12-20T07:42:08;4.65;;;2.97;;
79566;SDS011;69030;48.126;7.816;2023-12-20T07:44:34;6.55;;;3.92;;
79566;SDS011;69030;48.126;7.816;2023-12-20T07:47:03;5.63;;;4.25;;
79566;SDS011;69030;48.126;7.816;2023-12-20T07:49:30;6.80;;;3.83;;
79566;SDS011;69030;48.126;7.816;2023-12-20T07:51:55;5.20;;;3.28;;
79566;SDS011;69030;48.126;7.816;2023-12-20T07:54:21;4.50;;;3.30;;
79566;SDS011;69030;48.126;7.816;2023-12-20T07:56:47;3.22;;;1.75;;
79566;SDS011;69030;48.126;7.816;2023-12-20T07:59:12;2.67;;;2.15;;
79566;SDS011;69030;48.126;7.816;2023-12-20T08:01:37;2.47;;;1.48;;
79566;SDS011;69030;48.126;7.816;2023-12-20T08:04:03;2.90;;;1.35;;
79566;SDS011;69030;48.126;7.816;2023-12-20T08:06:29;3.17;;;1.63;;
79566;SDS011;69030;48.126;7.816;2023-12-20T08:08:54;3.45;;;2.38;;
79566;SDS011;69030;48.126;7.816;2023-12-20T08:11:20;4.90;;;3.30;;
79566;SDS011;69030;48.126;7.816;2023-12-20T08:13:45;6.35;;;3.80;;
79566;SDS011;69030;48.126;7.816;2023-12-20T08:16:11;6.13;;;3.95;;
79566;SDS011;69030;48.126;7.816;2023-12-20T08:18:38;5.72;;;3.03;;
79566;SDS011;69030;48.126;7.816;2023-12-20T08:21:04;7.70;;;2.13;;
79566;SDS011;69030;48.126;7.816;2023-12-20T08:23:32;4.53;;;3.22;;
79566;SDS011;69030;48.126;7.816;2023-12-20T08:25:58;3.80;;;2.50;;
79566;SDS011;69030;48.126;7.816;2023-12-20T08:28:24;2.88;;;1.90;;
79566;SDS011;69030;48.126;7.816;2023-12-20T08:30:49;4.05;;;2.70;;
79566;SDS011;69030;48.126;7.816;2023-12-20T08:33:18;5.60;;;2.08;;
79566;SDS011;69030;48.126;7.816;2023-12-20T08:35:44;2.92;;;1.38;;
79566;SDS011;69030;48.126;7.816;2023-12-20T08:38:09;2.25;;;1.45;;
79566;SDS011;69030;48.126;7.816;2023-12-20T08:40:35;2.83;;;2.13;;
79566;SDS011;69030;48.126;7.816;2023-12-20T08:43:00;2.33;;;1.75;;
79566;SDS011;69030;48.126;7.816;2023-12-20T08:45:26;2.42;;;2.05;;
79566;SDS011;69030;48.126;7.816;2023-12-20T08:47:51;2.03;;;1.55;;
79566;SDS011;69030;48.126;7.816;2023-12-20T08:50:17;3.80;;;2.28;;
79566;SDS011;69030;48.126;7.816;2023-12-20T08:52:43;3.03;;;1.50;;
79566;SDS011;69030;48.126;7.816;2023-12-20T08:55:09;3.80;;;2.03;;
79566;SDS011;69030;48.126;7.816;2023-12-20T08:57:38;3.75;;;2.10;;
79566;SDS011;69030;48.126;7.816;2023-12-20T09:00:03;7.97;;;3.63;;
79566;SDS011;69030;48.126;7.816;2023-12-20T09:02:29;5.40;;;2.75;;
79566;SDS011;69030;48.126;7.816;2023-12-20T09:04:55;3.78;;;2.17;;
79566;SDS011;69030;48.126;7.816;2023-12-20T09:07:21;5.45;;;2.53;;
79566;SDS011;69030;48.126;7.816;2023-12-20T09:09:48;4.95;;;2.67;;
79566;SDS011;69030;48.126;7.816;2023-12-20T09:12:13;5.82;;;2.63;;
79566;SDS011;69030;48.126;7.816;2023-12-20T09:14:39;4.03;;;2.17;;
79566;SDS011;69030;48.126;7.816;2023-12-20T09:17:04;5.50;;;2.90;;
79566;SDS011;69030;48.126;7.816;2023-12-20T09:19:30;2.85;;;2.05;;
79566;SDS011;69030;48.126;7.816;2023-12-20T09:21:55;4.47;;;1.98;;
79566;SDS011;69030;48.126;7.816;2023-12-20T09:24:20;4.85;;;2.97;;
79566;SDS011;69030;48.126;7.816;2023-12-20T09:26:46;4.38;;;2.60;;
79566;SDS011;69030;48.126;7.816;2023-12-20T09:29:12;9.05;;;3.90;;
79566;SDS011;69030;48.126;7.816;2023-12-20T09:31:40;6.85;;;3.28;;
79566;SDS011;69030;48.126;7.816;2023-12-20T09:34:06;1.77;;;1.45;;
79566;SDS011;69030;48.126;7.816;2023-12-20T09:36:32;2.00;;;1.75;;
79566;SDS011;69030;48.126;7.816;2023-12-20T09:39:01;2.78;;;1.30;;
79566;SDS011;69030;48.126;7.816;2023-12-20T09:41:26;5.40;;;1.38;;
79566;SDS011;69030;48.126;7.816;2023-12-20T09:43:54;3.63;;;1.45;;
79566;SDS011;69030;48.126;7.816;2023-12-20T09:46:19;2.35;;;1.50;;
79566;SDS011;69030;48.126;7.816;2023-12-20T09:48:49;2.53;;;1.25;;
79566;SDS011;69030;48.126;7.816;2023-12-20T09:51:14;3.47;;;1.30;;
79566;SDS011;69030;48.126;7.816;2023-12-20T09:53:40;3.70;;;1.38;;
79566;SDS011;69030;48.126;7.816;2023-12-20T09:56:06;2.25;;;1.15;;
79566;SDS011;69030;48.126;7.816;2023-12-20T09:58:32;2.90;;;1.05;;
79566;SDS011;69030;48.126;7.816;2023-12-20T10:00:58;4.07;;;2.05;;
79566;SDS011;69030;48.126;7.816;2023-12-20T10:03:24;3.20;;;2.30;;
79566;SDS011;69030;48.126;7.816;2023-12-20T10:05:52;2.40;;;1.02;;
79566;SDS011;69030;48.126;7.816;2023-12-20T10:08:20;1.90;;;1.80;;
79566;SDS011;69030;48.126;7.816;2023-12-20T10:10:47;5.95;;;1.15;;
79566;SDS011;69030;48.126;7.816;2023-12-20T10:13:13;3.50;;;1.20;;
79566;SDS011;69030;48.126;7.816;2023-12-20T10:15:38;2.88;;;1.48;;
79566;SDS011;69030;48.126;7.816;2023-12-20T10:18:04;3.88;;;1.08;;
79566;SDS011;69030;48.126;7.816;2023-12-20T10:20:31;2.13;;;1.52;;
79566;SDS011;69030;48.126;7.816;2023-12-20T10:22:57;1.05;;;0.90;;
79566;SDS011;69030;48.126;7.816;2023-12-20T10:25:24;3.00;;;1.15;;
79566;SDS011;69030;48.126;7.816;2023-12-20T10:27:50;3.90;;;1.05;;
79566;SDS011;69030;48.126;7.816;2023-12-20T10:30:16;2.13;;;1.13;;
79566;SDS011;69030;48.126;7.816;2023-12-20T10:32:41;2.13;;;0.80;;
79566;SDS011;69030;48.126;7.816;2023-12-20T10:35:08;2.20;;;0.65;;
79566;SDS011;69030;48.126;7.816;2023-12-20T10:37:37;3.78;;;1.25;;
79566;SDS011;69030;48.126;7.816;2023-12-20T10:40:03;4.15;;;1.20;;
79566;SDS011;69030;48.126;7.816;2023-12-20T10:42:29;3.05;;;1.23;;
79566;SDS011;69030;48.126;7.816;2023-12-20T10:44:55;3.00;;;0.88;;
79566;SDS011;69030;48.126;7.816;2023-12-20T10:47:20;2.22;;;1.52;;
79566;SDS011;69030;48.126;7.816;2023-12-20T10:49:46;2.10;;;1.25;;
79566;SDS011;69030;48.126;7.816;2023-12-20T10:52:13;4.25;;;1.02;;
79566;SDS011;69030;48.126;7.816;2023-12-20T10:54:39;1.90;;;0.65;;
79566;SDS011;69030;48.126;7.816;2023-12-20T10:57:06;3.00;;;0.82;;
79566;SDS011;69030;48.126;7.816;2023-12-20T10:59:36;4.72;;;0.73;;
79566;SDS011;69030;48.126;7.816;2023-12-20T11:02:02;5.85;;;0.90;;
79566;SDS011;69030;48.126;7.816;2023-12-20T11:07:20;3.05;;;1.48;;
79566;SDS011;69030;48.126;7.816;2023-12-20T11:09:56;3.75;;;2.13;;
79566;SDS011;69030;48.126;7.816;2023-12-20T11:15:25;3.10;;;1.13;;
79566;SDS011;69030;48.126;7.816;2023-12-20T11:17:55;2.65;;;1.08;;
79566;SDS011;69030;48.126;7.816;2023-12-20T11:20:34;3.67;;;1.83;;
79566;SDS011;69030;48.126;7.816;2023-12-20T11:23:02;4.03;;;1.40;;
79566;SDS011;69030;48.126;7.816;2023-12-20T11:25:28;6.95;;;1.67;;
79566;SDS011;69030;48.126;7.816;2023-12-20T11:30:41;5.97;;;1.15;;
79566;SDS011;69030;48.126;7.816;2023-12-20T11:33:08;3.05;;;1.30;;
79566;SDS011;69030;48.126;7.816;2023-12-20T11:35:34;5.82;;;1.45;;
79566;SDS011;69030;48.126;7.816;2023-12-20T11:38:01;1.63;;;0.98;;
79566;SDS011;69030;48.126;7.816;2023-12-20T11:40:27;2.05;;;0.65;;
79566;SDS011;69030;48.126;7.816;2023-12-20T11:42:53;4.00;;;1.33;;
79566;SDS011;69030;48.126;7.816;2023-12-20T11:45:20;3.33;;;1.25;;
79566;SDS011;69030;48.126;7.816;2023-12-20T11:47:48;3.78;;;0.82;;
79566;SDS011;69030;48.126;7.816;2023-12-20T11:50:15;2.45;;;1.85;;
79566;SDS011;69030;48.126;7.816;2023-12-20T11:52:43;2.20;;;0.57;;
79566;SDS011;69030;48.126;7.816;2023-12-20T11:55:09;4.85;;;1.70;;
79566;SDS011;69030;48.126;7.816;2023-12-20T11:57:35;4.65;;;1.88;;
79566;SDS011;69030;48.126;7.816;2023-12-20T12:00:01;1.88;;;0.93;;
79566;SDS011;69030;48.126;7.816;2023-12-20T12:02:27;3.20;;;0.88;;
79566;SDS011;69030;48.126;7.816;2023-12-20T12:04:52;1.80;;;0.55;;
79566;SDS011;69030;48.126;7.816;2023-12-20T12:07:18;5.88;;;0.60;;
79566;SDS011;69030;48.126;7.816;2023-12-20T12:09:43;2.58;;;0.35;;
79566;SDS011;69030;48.126;7.816;2023-12-20T12:12:11;2.63;;;0.55;;
79566;SDS011;69030;48.126;7.816;2023-12-20T12:14:38;3.55;;;0.57;;
79566;SDS011;69030;48.126;7.816;2023-12-20T12:17:05;2.83;;;1.15;;
79566;SDS011;69030;48.126;7.816;2023-12-20T12:19:35;1.40;;;1.15;;
79566;SDS011;69030;48.126;7.816;2023-12-20T12:22:08;1.70;;;0.68;;
79566;SDS011;69030;48.126;7.816;2023-12-20T12:24:42;4.93;;;1.13;;
79566;SDS011;69030;48.126;7.816;2023-12-20T12:27:09;4.93;;;0.80;;
79566;SDS011;69030;48.126;7.816;2023-12-20T12:29:35;3.80;;;0.63;;
79566;SDS011;69030;48.126;7.816;2023-12-20T12:32:04;7.85;;;1.52;;
79566;SDS011;69030;48.126;7.816;2023-12-20T12:34:33;4.93;;;1.92;;
79566;SDS011;69030;48.126;7.816;2023-12-20T12:36:59;4.32;;;1.08;;
79566;SDS011;69030;48.126;7.816;2023-12-20T12:39:26;1.70;;;1.17;;
79566;SDS011;69030;48.126;7.816;2023-12-20T12:41:51;2.92;;;0.65;;
79566;SDS011;69030;48.126;7.816;2023-12-20T12:44:17;3.78;;;0.80;;
79566;SDS011;69030;48.126;7.816;2023-12-20T12:46:43;2.97;;;0.70;;
79566;SDS011;69030;48.126;7.816;2023-12-20T12:49:10;3.38;;;0.95;;
79566;SDS011;69030;48.126;7.816;2023-12-20T12:51:35;1.42;;;0.73;;
79566;SDS011;69030;48.126;7.816;2023-12-20T12:54:01;4.55;;;0.57;;
79566;SDS011;69030;48.126;7.816;2023-12-20T12:56:27;7.15;;;1.67;;
79566;SDS011;69030;48.126;7.816;2023-12-20T12:58:52;6.05;;;1.65;;
79566;SDS011;69030;48.126;7.816;2023-12-20T13:01:18;3.45;;;1.13;;
79566;SDS011;69030;48.126;7.816;2023-12-20T13:03:43;6.32;;;1.40;;
79566;SDS011;69030;48.126;7.816;2023-12-20T13:06:09;7.00;;;2.17;;
79566;SDS011;69030;48.126;7.816;2023-12-20T13:08:34;5.57;;;1.40;;
79566;SDS011;69030;48.126;7.816;2023-12-20T13:11:00;4.38;;;1.80;;
79566;SDS011;69030;48.126;7.816;2023-12-20T13:13:28;5.68;;;2.88;;
79566;SDS011;69030;48.126;7.816;2023-12-20T13:15:54;5.15;;;2.03;;
79566;SDS011;69030;48.126;7.816;2023-12-20T13:18:20;5.85;;;3.22;;
79566;SDS011;69030;48.126;7.816;2023-12-20T13:20:46;8.93;;;3.28;;
79566;SDS011;69030;48.126;7.816;2023-12-20T13:23:14;7.60;;;2.05;;
79566;SDS011;69030;48.126;7.816;2023-12-20T13:25:41;3.17;;;1.52;;
79566;SDS011;69030;48.126;7.816;2023-12-20T13:28:07;3.35;;;1.05;;
79566;SDS011;69030;48.126;7.816;2023-12-20T13:30:33;4.07;;;0.75;;
79566;SDS011;69030;48.126;7.816;2023-12-20T13:32:59;4.82;;;0.85;;
79566;SDS011;69030;48.126;7.816;2023-12-20T13:35:24;3.70;;;1.50;;
79566;SDS011;69030;48.126;7.816;2023-12-20T13:37:50;3.22;;;1.15;;
79566;SDS011;69030;48.126;7.816;2023-12-20T13:40:16;3.45;;;0.77;;
79566;SDS011;69030;48.126;7.816;2023-12-20T13:42:41;2.72;;;1.73;;
79566;SDS011;69030;48.126;7.816;2023-12-20T13:45:07;3.13;;;0.77;;
79566;SDS011;69030;48.126;7.816;2023-12-20T13:47:33;3.72;;;1.50;;
79566;SDS011;69030;48.126;7.816;2023-12-20T13:49:59;3.42;;;1.10;;
79566;SDS011;69030;48.126;7.816;2023-12-20T13:52:24;3.72;;;0.35;;
79566;SDS011;69030;48.126;7.816;2023-12-20T13:54:50;2.30;;;0.88;;
79566;SDS011;69030;48.126;7.816;2023-12-20T13:57:15;1.15;;;0.85;;
79566;SDS011;69030;48.126;7.816;2023-12-20T13:59:40;1.20;;;0.77;;
79566;SDS011;69030;48.126;7.816;2023-12-20T14:02:06;1.98;;;0.52;;
79566;SDS011;69030;48.126;7.816;2023-12-20T14:04:31;5.32;;;0.90;;
79566;SDS011;69030;48.126;7.816;2023-12-20T14:06:57;1.58;;;0.52;;
79566;SDS011;69030;48.126;7.816;2023-12-20T14:09:23;1.13;;;1.05;;
79566;SDS011;69030;48.126;7.816;2023-12-20T14:11:48;5.55;;;3.30;;
79566;SDS011;69030;48.126;7.816;2023-12-20T14:14:14;7.22;;;2.72;;
79566;SDS011;69030;48.126;7.816;2023-12-20T14:16:39;2.97;;;1.38;;
79566;SDS011;69030;48.126;7.816;2023-12-20T14:19:05;3.85;;;1.00;;
79566;SDS011;69030;48.126;7.816;2023-12-20T14:21:34;5.80;;;2.85;;
79566;SDS011;69030;48.126;7.816;2023-12-20T14:23:59;4.65;;;2.67;;
79566;SDS011;69030;48.126;7.816;2023-12-20T14:26:26;6.70;;;2.85;;
79566;SDS011;69030;48.126;7.816;2023-12-20T14:28:53;8.05;;;2.40;;
79566;SDS011;69030;48.126;7.816;2023-12-20T14:31:19;9.15;;;3.33;;
79566;SDS011;69030;48.126;7.816;2023-12-20T14:33:45;10.18;;;4.35;;
79566;SDS011;69030;48.126;7.816;2023-12-20T14:36:11;6.32;;;2.17;;
79566;SDS011;69030;48.126;7.816;2023-12-20T14:38:38;2.63;;;0.98;;
79566;SDS011;69030;48.126;7.816;2023-12-20T14:41:04;5.32;;;2.13;;
79566;SDS011;69030;48.126;7.816;2023-12-20T14:43:31;3.75;;;1.67;;
79566;SDS011;69030;48.126;7.816;2023-12-20T14:45:56;4.70;;;1.20;;
79566;SDS011;69030;48.126;7.816;2023-12-20T14:48:22;1.75;;;0.47;;
79566;SDS011;69030;48.126;7.816;2023-12-20T14:50:47;2.65;;;0.88;;
79566;SDS011;69030;48.126;7.816;2023-12-20T14:53:14;5.63;;;1.55;;
79566;SDS011;69030;48.126;7.816;2023-12-20T14:55:43;4.18;;;0.93;;
79566;SDS011;69030;48.126;7.816;2023-12-20T14:58:09;7.05;;;1.63;;
79566;SDS011;69030;48.126;7.816;2023-12-20T15:00:35;3.58;;;0.80;;